Towncrest Village, Pennsylvania
Current Conditions -  °F | °C
As of 5:54 PM on Thursday 20 Nov 2014 (Local Time) from KIPT Reporting Station
Clear Clear  
Wind Chill: 16°   Ceiling: Unl
Heat Index: 29°   Visibility: 10mi
Dew Point:   Wind: 20mph
Humidity: 40%   Direction: 260°W
Pressure: 29.97"   Gusts: 29mph
Location:  41.246°N, 77.0167°W
Report Text: KIPT 202254Z 26017G25KT 10SM CLR M02/M14 A2997 RMK AO2 PK WND 26028/2237 SLP155 T10171139
Loading
Personal Weather Stations






























Interactive Weather Map New forecast layout! Learn more

10-Day Weather Forecast

Advertisements
Track Severe Weather on mobile